sensor_id;sensor_type;location;lat;lon;timestamp;P1;durP1;ratioP1;P2;durP2;ratioP2
9860;SDS011;4969;52.304;4.968;2023-07-09T00:00:53;11.88;;;10.68;;
9860;SDS011;4969;52.304;4.968;2023-07-09T00:03:19;13.85;;;10.65;;
9860;SDS011;4969;52.304;4.968;2023-07-09T00:05:47;12.10;;;10.90;;
9860;SDS011;4969;52.304;4.968;2023-07-09T00:08:16;11.75;;;10.52;;
9860;SDS011;4969;52.304;4.968;2023-07-09T00:10:51;13.13;;;10.55;;
9860;SDS011;4969;52.304;4.968;2023-07-09T00:13:18;11.50;;;10.40;;
9860;SDS011;4969;52.304;4.968;2023-07-09T00:15:45;12.85;;;11.60;;
9860;SDS011;4969;52.304;4.968;2023-07-09T00:18:13;11.60;;;10.38;;
9860;SDS011;4969;52.304;4.968;2023-07-09T00:20:39;11.38;;;10.27;;
9860;SDS011;4969;52.304;4.968;2023-07-09T00:23:08;10.98;;;9.73;;
9860;SDS011;4969;52.304;4.968;2023-07-09T00:25:38;11.85;;;10.75;;
9860;SDS011;4969;52.304;4.968;2023-07-09T00:28:07;12.25;;;10.38;;
9860;SDS011;4969;52.304;4.968;2023-07-09T00:30:38;11.45;;;10.35;;
9860;SDS011;4969;52.304;4.968;2023-07-09T00:33:04;10.85;;;9.85;;
9860;SDS011;4969;52.304;4.968;2023-07-09T00:35:36;11.07;;;9.98;;
9860;SDS011;4969;52.304;4.968;2023-07-09T00:38:05;12.07;;;10.27;;
9860;SDS011;4969;52.304;4.968;2023-07-09T00:40:31;12.05;;;10.77;;
9860;SDS011;4969;52.304;4.968;2023-07-09T00:42:59;13.30;;;11.63;;
9860;SDS011;4969;52.304;4.968;2023-07-09T00:45:26;12.15;;;10.95;;
9860;SDS011;4969;52.304;4.968;2023-07-09T00:47:54;11.68;;;10.30;;
9860;SDS011;4969;52.304;4.968;2023-07-09T00:50:30;12.27;;;10.98;;
9860;SDS011;4969;52.304;4.968;2023-07-09T00:53:03;12.38;;;11.13;;
9860;SDS011;4969;52.304;4.968;2023-07-09T00:55:36;12.10;;;10.90;;
9860;SDS011;4969;52.304;4.968;2023-07-09T00:58:06;13.25;;;11.15;;
9860;SDS011;4969;52.304;4.968;2023-07-09T01:00:36;13.57;;;11.65;;
9860;SDS011;4969;52.304;4.968;2023-07-09T01:03:11;11.80;;;10.80;;
9860;SDS011;4969;52.304;4.968;2023-07-09T01:05:44;12.82;;;10.93;;
9860;SDS011;4969;52.304;4.968;2023-07-09T01:08:17;12.57;;;11.45;;
9860;SDS011;4969;52.304;4.968;2023-07-09T01:10:45;12.30;;;11.00;;
9860;SDS011;4969;52.304;4.968;2023-07-09T01:13:12;12.30;;;11.02;;
9860;SDS011;4969;52.304;4.968;2023-07-09T01:15:39;12.30;;;10.68;;
9860;SDS011;4969;52.304;4.968;2023-07-09T01:18:07;12.95;;;11.65;;
9860;SDS011;4969;52.304;4.968;2023-07-09T01:20:35;11.05;;;9.95;;
9860;SDS011;4969;52.304;4.968;2023-07-09T01:23:05;12.00;;;10.80;;
9860;SDS011;4969;52.304;4.968;2023-07-09T01:25:33;12.38;;;11.07;;
9860;SDS011;4969;52.304;4.968;2023-07-09T01:28:00;12.63;;;11.35;;
9860;SDS011;4969;52.304;4.968;2023-07-09T01:30:29;12.00;;;10.90;;
9860;SDS011;4969;52.304;4.968;2023-07-09T01:32:58;12.98;;;11.15;;
9860;SDS011;4969;52.304;4.968;2023-07-09T01:35:27;12.00;;;10.75;;
9860;SDS011;4969;52.304;4.968;2023-07-09T01:37:55;11.13;;;10.02;;
9860;SDS011;4969;52.304;4.968;2023-07-09T01:40:23;12.43;;;10.13;;
9860;SDS011;4969;52.304;4.968;2023-07-09T01:42:52;12.50;;;10.45;;
9860;SDS011;4969;52.304;4.968;2023-07-09T01:45:21;12.98;;;10.02;;
9860;SDS011;4969;52.304;4.968;2023-07-09T01:47:48;10.90;;;9.90;;
9860;SDS011;4969;52.304;4.968;2023-07-09T01:50:15;12.48;;;10.45;;
9860;SDS011;4969;52.304;4.968;2023-07-09T01:52:43;11.20;;;10.10;;
9860;SDS011;4969;52.304;4.968;2023-07-09T01:55:11;11.25;;;10.05;;
9860;SDS011;4969;52.304;4.968;2023-07-09T01:57:43;11.80;;;10.15;;
9860;SDS011;4969;52.304;4.968;2023-07-09T02:00:11;14.38;;;9.93;;
9860;SDS011;4969;52.304;4.968;2023-07-09T02:02:40;11.18;;;10.07;;
9860;SDS011;4969;52.304;4.968;2023-07-09T02:05:08;11.23;;;10.15;;
9860;SDS011;4969;52.304;4.968;2023-07-09T02:07:35;12.23;;;10.65;;
9860;SDS011;4969;52.304;4.968;2023-07-09T02:10:02;13.32;;;10.73;;
9860;SDS011;4969;52.304;4.968;2023-07-09T02:12:29;11.27;;;10.20;;
9860;SDS011;4969;52.304;4.968;2023-07-09T02:14:57;10.52;;;9.18;;
9860;SDS011;4969;52.304;4.968;2023-07-09T02:17:23;9.85;;;8.95;;
9860;SDS011;4969;52.304;4.968;2023-07-09T02:19:50;11.20;;;9.15;;
9860;SDS011;4969;52.304;4.968;2023-07-09T02:22:17;9.70;;;8.70;;
9860;SDS011;4969;52.304;4.968;2023-07-09T02:24:44;9.90;;;8.90;;
9860;SDS011;4969;52.304;4.968;2023-07-09T02:27:12;9.43;;;8.63;;
9860;SDS011;4969;52.304;4.968;2023-07-09T02:29:41;10.73;;;9.60;;
9860;SDS011;4969;52.304;4.968;2023-07-09T02:32:09;9.77;;;8.98;;
9860;SDS011;4969;52.304;4.968;2023-07-09T02:34:42;13.73;;;10.25;;
9860;SDS011;4969;52.304;4.968;2023-07-09T02:37:14;11.88;;;9.68;;
9860;SDS011;4969;52.304;4.968;2023-07-09T02:39:42;11.23;;;10.13;;
9860;SDS011;4969;52.304;4.968;2023-07-09T02:42:09;11.40;;;10.40;;
9860;SDS011;4969;52.304;4.968;2023-07-09T02:44:36;10.60;;;9.50;;
9860;SDS011;4969;52.304;4.968;2023-07-09T02:47:02;10.38;;;9.27;;
9860;SDS011;4969;52.304;4.968;2023-07-09T02:49:31;10.60;;;9.50;;
9860;SDS011;4969;52.304;4.968;2023-07-09T02:51:58;10.23;;;9.23;;
9860;SDS011;4969;52.304;4.968;2023-07-09T02:54:24;10.57;;;9.48;;
9860;SDS011;4969;52.304;4.968;2023-07-09T02:56:51;12.05;;;9.35;;
9860;SDS011;4969;52.304;4.968;2023-07-09T02:59:17;10.20;;;9.10;;
9860;SDS011;4969;52.304;4.968;2023-07-09T03:01:45;10.60;;;9.20;;
9860;SDS011;4969;52.304;4.968;2023-07-09T03:04:12;11.65;;;9.25;;
9860;SDS011;4969;52.304;4.968;2023-07-09T03:06:40;9.57;;;8.52;;
9860;SDS011;4969;52.304;4.968;2023-07-09T03:09:07;12.25;;;9.10;;
9860;SDS011;4969;52.304;4.968;2023-07-09T03:11:35;11.75;;;9.45;;
9860;SDS011;4969;52.304;4.968;2023-07-09T03:14:02;10.07;;;9.10;;
9860;SDS011;4969;52.304;4.968;2023-07-09T03:16:29;10.93;;;9.40;;
9860;SDS011;4969;52.304;4.968;2023-07-09T03:18:57;11.40;;;10.25;;
9860;SDS011;4969;52.304;4.968;2023-07-09T03:21:24;12.23;;;10.27;;
9860;SDS011;4969;52.304;4.968;2023-07-09T03:23:53;10.45;;;9.45;;
9860;SDS011;4969;52.304;4.968;2023-07-09T03:26:20;11.15;;;10.13;;
9860;SDS011;4969;52.304;4.968;2023-07-09T03:28:47;12.13;;;10.77;;
9860;SDS011;4969;52.304;4.968;2023-07-09T03:31:14;11.40;;;10.32;;
9860;SDS011;4969;52.304;4.968;2023-07-09T03:33:41;13.75;;;11.10;;
9860;SDS011;4969;52.304;4.968;2023-07-09T03:36:07;12.18;;;10.98;;
9860;SDS011;4969;52.304;4.968;2023-07-09T03:38:34;11.43;;;10.23;;
9860;SDS011;4969;52.304;4.968;2023-07-09T03:41:02;11.18;;;10.15;;
9860;SDS011;4969;52.304;4.968;2023-07-09T03:43:29;12.98;;;11.48;;
9860;SDS011;4969;52.304;4.968;2023-07-09T03:45:55;11.43;;;10.30;;
9860;SDS011;4969;52.304;4.968;2023-07-09T03:48:22;11.80;;;10.57;;
9860;SDS011;4969;52.304;4.968;2023-07-09T03:50:48;13.20;;;10.23;;
9860;SDS011;4969;52.304;4.968;2023-07-09T03:53:15;11.98;;;10.20;;
9860;SDS011;4969;52.304;4.968;2023-07-09T03:55:42;12.05;;;10.75;;
9860;SDS011;4969;52.304;4.968;2023-07-09T03:58:12;11.05;;;9.85;;
9860;SDS011;4969;52.304;4.968;2023-07-09T04:00:39;11.07;;;10.07;;
9860;SDS011;4969;52.304;4.968;2023-07-09T04:03:06;11.25;;;10.18;;
9860;SDS011;4969;52.304;4.968;2023-07-09T04:05:33;11.18;;;9.68;;
9860;SDS011;4969;52.304;4.968;2023-07-09T04:08:00;10.77;;;9.45;;
9860;SDS011;4969;52.304;4.968;2023-07-09T04:10:26;11.25;;;10.30;;
9860;SDS011;4969;52.304;4.968;2023-07-09T04:12:53;12.63;;;11.50;;
9860;SDS011;4969;52.304;4.968;2023-07-09T04:15:21;13.30;;;11.73;;
9860;SDS011;4969;52.304;4.968;2023-07-09T04:17:47;20.85;;;14.13;;
9860;SDS011;4969;52.304;4.968;2023-07-09T04:20:14;12.95;;;11.30;;
9860;SDS011;4969;52.304;4.968;2023-07-09T04:22:41;17.27;;;11.63;;
9860;SDS011;4969;52.304;4.968;2023-07-09T04:25:08;11.65;;;10.45;;
9860;SDS011;4969;52.304;4.968;2023-07-09T04:27:37;12.20;;;10.68;;
9860;SDS011;4969;52.304;4.968;2023-07-09T04:30:04;16.05;;;11.55;;
9860;SDS011;4969;52.304;4.968;2023-07-09T04:32:33;12.45;;;11.07;;
9860;SDS011;4969;52.304;4.968;2023-07-09T04:35:01;14.55;;;11.60;;
9860;SDS011;4969;52.304;4.968;2023-07-09T04:37:30;12.40;;;11.23;;
9860;SDS011;4969;52.304;4.968;2023-07-09T04:39:57;12.38;;;10.60;;
9860;SDS011;4969;52.304;4.968;2023-07-09T04:42:23;12.15;;;10.95;;
9860;SDS011;4969;52.304;4.968;2023-07-09T04:44:50;14.48;;;11.27;;
9860;SDS011;4969;52.304;4.968;2023-07-09T04:47:17;12.07;;;10.88;;
9860;SDS011;4969;52.304;4.968;2023-07-09T04:49:44;11.93;;;10.80;;
9860;SDS011;4969;52.304;4.968;2023-07-09T04:52:11;11.30;;;10.10;;
9860;SDS011;4969;52.304;4.968;2023-07-09T04:54:40;12.05;;;10.95;;
9860;SDS011;4969;52.304;4.968;2023-07-09T04:57:08;12.88;;;11.60;;
9860;SDS011;4969;52.304;4.968;2023-07-09T04:59:35;12.18;;;11.07;;
9860;SDS011;4969;52.304;4.968;2023-07-09T05:02:02;13.82;;;11.20;;
9860;SDS011;4969;52.304;4.968;2023-07-09T05:04:30;14.43;;;11.27;;
9860;SDS011;4969;52.304;4.968;2023-07-09T05:06:58;14.18;;;12.10;;
9860;SDS011;4969;52.304;4.968;2023-07-09T05:09:25;12.32;;;11.00;;
9860;SDS011;4969;52.304;4.968;2023-07-09T05:11:51;13.00;;;11.23;;
9860;SDS011;4969;52.304;4.968;2023-07-09T05:14:18;13.50;;;12.10;;
9860;SDS011;4969;52.304;4.968;2023-07-09T05:16:45;12.98;;;11.70;;
9860;SDS011;4969;52.304;4.968;2023-07-09T05:19:11;13.60;;;11.57;;
9860;SDS011;4969;52.304;4.968;2023-07-09T05:21:38;13.85;;;11.18;;
9860;SDS011;4969;52.304;4.968;2023-07-09T05:24:06;12.40;;;11.30;;
9860;SDS011;4969;52.304;4.968;2023-07-09T05:26:33;15.48;;;12.63;;
9860;SDS011;4969;52.304;4.968;2023-07-09T05:29:01;14.75;;;12.73;;
9860;SDS011;4969;52.304;4.968;2023-07-09T05:31:29;13.25;;;11.52;;
9860;SDS011;4969;52.304;4.968;2023-07-09T05:33:55;15.75;;;12.45;;
9860;SDS011;4969;52.304;4.968;2023-07-09T05:36:22;14.02;;;12.02;;
9860;SDS011;4969;52.304;4.968;2023-07-09T05:38:48;14.52;;;11.95;;
9860;SDS011;4969;52.304;4.968;2023-07-09T05:41:17;15.20;;;12.65;;
9860;SDS011;4969;52.304;4.968;2023-07-09T05:43:44;14.48;;;11.98;;
9860;SDS011;4969;52.304;4.968;2023-07-09T05:46:11;12.77;;;11.52;;
9860;SDS011;4969;52.304;4.968;2023-07-09T05:48:39;14.25;;;12.38;;
9860;SDS011;4969;52.304;4.968;2023-07-09T05:51:05;15.25;;;11.75;;
9860;SDS011;4969;52.304;4.968;2023-07-09T05:53:32;16.65;;;12.98;;
9860;SDS011;4969;52.304;4.968;2023-07-09T05:55:59;12.82;;;11.50;;
9860;SDS011;4969;52.304;4.968;2023-07-09T05:58:27;14.23;;;12.68;;
9860;SDS011;4969;52.304;4.968;2023-07-09T06:00:54;14.70;;;12.32;;
9860;SDS011;4969;52.304;4.968;2023-07-09T06:03:21;13.77;;;12.05;;
9860;SDS011;4969;52.304;4.968;2023-07-09T06:05:49;13.20;;;11.90;;
9860;SDS011;4969;52.304;4.968;2023-07-09T06:08:16;13.70;;;12.23;;
9860;SDS011;4969;52.304;4.968;2023-07-09T06:10:50;15.15;;;11.85;;
9860;SDS011;4969;52.304;4.968;2023-07-09T06:13:17;13.23;;;11.50;;
9860;SDS011;4969;52.304;4.968;2023-07-09T06:15:46;15.57;;;11.40;;
9860;SDS011;4969;52.304;4.968;2023-07-09T06:18:13;13.63;;;11.25;;
9860;SDS011;4969;52.304;4.968;2023-07-09T06:20:39;12.73;;;11.30;;
9860;SDS011;4969;52.304;4.968;2023-07-09T06:23:06;12.65;;;11.30;;
9860;SDS011;4969;52.304;4.968;2023-07-09T06:25:33;12.45;;;11.15;;
9860;SDS011;4969;52.304;4.968;2023-07-09T06:27:59;13.80;;;11.70;;
9860;SDS011;4969;52.304;4.968;2023-07-09T06:30:26;16.13;;;12.77;;
9860;SDS011;4969;52.304;4.968;2023-07-09T06:32:54;14.57;;;12.50;;
9860;SDS011;4969;52.304;4.968;2023-07-09T06:35:20;15.25;;;13.70;;
9860;SDS011;4969;52.304;4.968;2023-07-09T06:37:47;16.55;;;14.85;;
9860;SDS011;4969;52.304;4.968;2023-07-09T06:40:14;16.27;;;13.80;;
9860;SDS011;4969;52.304;4.968;2023-07-09T06:42:40;15.15;;;13.65;;
9860;SDS011;4969;52.304;4.968;2023-07-09T06:45:07;15.23;;;13.73;;
9860;SDS011;4969;52.304;4.968;2023-07-09T06:47:34;15.77;;;13.30;;
9860;SDS011;4969;52.304;4.968;2023-07-09T06:50:02;16.85;;;15.10;;
9860;SDS011;4969;52.304;4.968;2023-07-09T06:52:29;19.10;;;17.08;;
9860;SDS011;4969;52.304;4.968;2023-07-09T06:54:55;17.23;;;15.10;;
9860;SDS011;4969;52.304;4.968;2023-07-09T06:57:22;18.95;;;16.98;;
9860;SDS011;4969;52.304;4.968;2023-07-09T06:59:48;21.05;;;18.90;;
9860;SDS011;4969;52.304;4.968;2023-07-09T07:02:15;21.52;;;19.35;;
9860;SDS011;4969;52.304;4.968;2023-07-09T07:04:42;21.02;;;18.92;;
9860;SDS011;4969;52.304;4.968;2023-07-09T07:07:10;21.45;;;19.42;;
9860;SDS011;4969;52.304;4.968;2023-07-09T07:09:37;22.42;;;19.60;;
9860;SDS011;4969;52.304;4.968;2023-07-09T07:12:04;21.63;;;18.73;;
9860;SDS011;4969;52.304;4.968;2023-07-09T07:14:31;16.38;;;14.52;;
9860;SDS011;4969;52.304;4.968;2023-07-09T07:16:58;19.63;;;17.77;;
9860;SDS011;4969;52.304;4.968;2023-07-09T07:19:24;19.88;;;17.80;;
9860;SDS011;4969;52.304;4.968;2023-07-09T07:21:52;20.77;;;18.75;;
9860;SDS011;4969;52.304;4.968;2023-07-09T07:24:20;21.05;;;18.95;;
9860;SDS011;4969;52.304;4.968;2023-07-09T07:26:47;20.50;;;18.23;;
9860;SDS011;4969;52.304;4.968;2023-07-09T07:29:13;21.35;;;18.73;;
9860;SDS011;4969;52.304;4.968;2023-07-09T07:31:40;20.83;;;18.08;;
9860;SDS011;4969;52.304;4.968;2023-07-09T07:34:06;19.58;;;17.50;;
9860;SDS011;4969;52.304;4.968;2023-07-09T07:36:33;22.52;;;20.27;;
9860;SDS011;4969;52.304;4.968;2023-07-09T07:39:00;21.90;;;19.40;;
9860;SDS011;4969;52.304;4.968;2023-07-09T07:41:27;19.92;;;18.02;;
9860;SDS011;4969;52.304;4.968;2023-07-09T07:43:54;17.65;;;15.85;;
9860;SDS011;4969;52.304;4.968;2023-07-09T07:46:21;19.95;;;16.58;;
9860;SDS011;4969;52.304;4.968;2023-07-09T07:48:47;16.13;;;14.52;;
9860;SDS011;4969;52.304;4.968;2023-07-09T07:51:14;13.95;;;12.52;;
9860;SDS011;4969;52.304;4.968;2023-07-09T07:53:41;17.23;;;13.18;;
9860;SDS011;4969;52.304;4.968;2023-07-09T07:56:08;14.65;;;13.25;;
9860;SDS011;4969;52.304;4.968;2023-07-09T07:58:36;17.10;;;15.50;;
9860;SDS011;4969;52.304;4.968;2023-07-09T08:01:03;14.85;;;13.45;;
9860;SDS011;4969;52.304;4.968;2023-07-09T08:03:29;14.75;;;12.90;;
9860;SDS011;4969;52.304;4.968;2023-07-09T08:05:56;13.25;;;11.98;;
9860;SDS011;4969;52.304;4.968;2023-07-09T08:08:23;14.90;;;13.40;;
9860;SDS011;4969;52.304;4.968;2023-07-09T08:10:49;15.50;;;11.70;;
9860;SDS011;4969;52.304;4.968;2023-07-09T08:13:16;12.98;;;10.45;;
9860;SDS011;4969;52.304;4.968;2023-07-09T08:15:44;10.45;;;9.35;;
9860;SDS011;4969;52.304;4.968;2023-07-09T08:18:11;12.10;;;7.40;;
9860;SDS011;4969;52.304;4.968;2023-07-09T08:20:42;8.38;;;7.55;;
9860;SDS011;4969;52.304;4.968;2023-07-09T08:23:09;7.50;;;6.80;;
9860;SDS011;4969;52.304;4.968;2023-07-09T08:25:36;9.45;;;7.07;;
9860;SDS011;4969;52.304;4.968;2023-07-09T08:28:02;9.50;;;6.35;;
9860;SDS011;4969;52.304;4.968;2023-07-09T08:30:29;9.60;;;6.25;;
9860;SDS011;4969;52.304;4.968;2023-07-09T08:32:57;9.48;;;6.40;;
9860;SDS011;4969;52.304;4.968;2023-07-09T08:35:24;8.68;;;7.40;;
9860;SDS011;4969;52.304;4.968;2023-07-09T08:37:50;7.95;;;6.97;;
9860;SDS011;4969;52.304;4.968;2023-07-09T08:40:17;9.13;;;7.93;;
9860;SDS011;4969;52.304;4.968;2023-07-09T08:42:45;8.05;;;7.25;;
9860;SDS011;4969;52.304;4.968;2023-07-09T08:45:19;10.20;;;7.93;;
9860;SDS011;4969;52.304;4.968;2023-07-09T08:47:58;12.40;;;9.90;;
9860;SDS011;4969;52.304;4.968;2023-07-09T08:50:31;11.55;;;10.23;;
9860;SDS011;4969;52.304;4.968;2023-07-09T08:53:02;12.73;;;11.43;;
9860;SDS011;4969;52.304;4.968;2023-07-09T08:55:30;13.50;;;12.13;;
9860;SDS011;4969;52.304;4.968;2023-07-09T08:58:08;14.10;;;12.70;;
9860;SDS011;4969;52.304;4.968;2023-07-09T09:00:40;13.85;;;12.18;;
9860;SDS011;4969;52.304;4.968;2023-07-09T09:03:14;9.82;;;8.95;;
9860;SDS011;4969;52.304;4.968;2023-07-09T09:05:48;9.60;;;8.60;;
9860;SDS011;4969;52.304;4.968;2023-07-09T09:08:19;9.88;;;8.30;;
9860;SDS011;4969;52.304;4.968;2023-07-09T09:11:00;9.20;;;8.13;;
9860;SDS011;4969;52.304;4.968;2023-07-09T09:13:35;9.75;;;8.40;;
9860;SDS011;4969;52.304;4.968;2023-07-09T09:16:04;8.85;;;8.02;;
9860;SDS011;4969;52.304;4.968;2023-07-09T09:18:41;11.65;;;9.32;;
9860;SDS011;4969;52.304;4.968;2023-07-09T09:21:10;10.40;;;9.35;;
9860;SDS011;4969;52.304;4.968;2023-07-09T09:23:43;10.90;;;9.40;;
9860;SDS011;4969;52.304;4.968;2023-07-09T09:26:15;9.05;;;8.18;;
9860;SDS011;4969;52.304;4.968;2023-07-09T09:28:44;9.82;;;7.45;;
9860;SDS011;4969;52.304;4.968;2023-07-09T09:31:10;9.85;;;8.23;;
9860;SDS011;4969;52.304;4.968;2023-07-09T09:33:41;8.88;;;8.10;;
9860;SDS011;4969;52.304;4.968;2023-07-09T09:36:14;8.85;;;8.02;;
9860;SDS011;4969;52.304;4.968;2023-07-09T09:38:42;7.60;;;6.90;;
9860;SDS011;4969;52.304;4.968;2023-07-09T09:41:13;8.45;;;7.75;;
9860;SDS011;4969;52.304;4.968;2023-07-09T09:43:41;10.07;;;9.02;;
9860;SDS011;4969;52.304;4.968;2023-07-09T09:46:09;13.98;;;8.10;;
9860;SDS011;4969;52.304;4.968;2023-07-09T09:48:44;11.15;;;8.65;;
9860;SDS011;4969;52.304;4.968;2023-07-09T09:51:11;8.48;;;7.60;;
9860;SDS011;4969;52.304;4.968;2023-07-09T09:53:39;11.48;;;10.40;;
9860;SDS011;4969;52.304;4.968;2023-07-09T09:56:11;10.48;;;9.50;;
9860;SDS011;4969;52.304;4.968;2023-07-09T09:58:41;14.35;;;12.88;;
9860;SDS011;4969;52.304;4.968;2023-07-09T10:01:11;14.70;;;12.60;;
9860;SDS011;4969;52.304;4.968;2023-07-09T10:03:41;10.68;;;9.60;;
9860;SDS011;4969;52.304;4.968;2023-07-09T10:06:12;15.50;;;11.98;;
9860;SDS011;4969;52.304;4.968;2023-07-09T10:08:44;11.32;;;10.05;;
9860;SDS011;4969;52.304;4.968;2023-07-09T10:11:21;11.88;;;9.40;;
9860;SDS011;4969;52.304;4.968;2023-07-09T10:13:55;12.13;;;10.52;;
9860;SDS011;4969;52.304;4.968;2023-07-09T10:16:29;12.95;;;10.50;;
9860;SDS011;4969;52.304;4.968;2023-07-09T10:19:03;11.40;;;9.73;;
9860;SDS011;4969;52.304;4.968;2023-07-09T10:21:39;12.32;;;10.45;;
9860;SDS011;4969;52.304;4.968;2023-07-09T10:24:13;13.10;;;10.85;;
9860;SDS011;4969;52.304;4.968;2023-07-09T10:26:53;11.50;;;9.55;;
9860;SDS011;4969;52.304;4.968;2023-07-09T10:29:36;12.98;;;10.35;;
9860;SDS011;4969;52.304;4.968;2023-07-09T10:32:16;12.25;;;11.07;;
9860;SDS011;4969;52.304;4.968;2023-07-09T10:34:53;12.57;;;11.35;;
9860;SDS011;4969;52.304;4.968;2023-07-09T10:37:32;14.13;;;12.02;;
9860;SDS011;4969;52.304;4.968;2023-07-09T10:40:11;15.43;;;13.93;;
9860;SDS011;4969;52.304;4.968;2023-07-09T10:42:43;13.45;;;12.05;;
9860;SDS011;4969;52.304;4.968;2023-07-09T10:45:13;9.05;;;8.32;;
9860;SDS011;4969;52.304;4.968;2023-07-09T10:47:47;7.97;;;7.28;;
9860;SDS011;4969;52.304;4.968;2023-07-09T10:50:29;10.80;;;9.40;;
9860;SDS011;4969;52.304;4.968;2023-07-09T10:53:00;9.02;;;8.20;;
9860;SDS011;4969;52.304;4.968;2023-07-09T10:55:33;10.55;;;9.23;;
9860;SDS011;4969;52.304;4.968;2023-07-09T10:58:14;10.30;;;8.70;;
9860;SDS011;4969;52.304;4.968;2023-07-09T11:00:48;9.57;;;8.57;;
9860;SDS011;4969;52.304;4.968;2023-07-09T11:03:15;14.77;;;8.65;;
9860;SDS011;4969;52.304;4.968;2023-07-09T11:05:44;9.23;;;8.13;;
9860;SDS011;4969;52.304;4.968;2023-07-09T11:08:13;9.32;;;8.50;;
9860;SDS011;4969;52.304;4.968;2023-07-09T11:10:44;12.18;;;8.35;;
9860;SDS011;4969;52.304;4.968;2023-07-09T11:13:15;11.00;;;9.10;;
9860;SDS011;4969;52.304;4.968;2023-07-09T11:15:45;9.93;;;7.40;;
9860;SDS011;4969;52.304;4.968;2023-07-09T11:18:16;10.02;;;9.05;;
9860;SDS011;4969;52.304;4.968;2023-07-09T11:20:54;9.18;;;7.15;;
9860;SDS011;4969;52.304;4.968;2023-07-09T11:23:25;7.53;;;6.75;;
9860;SDS011;4969;52.304;4.968;2023-07-09T11:26:00;8.45;;;7.28;;
9860;SDS011;4969;52.304;4.968;2023-07-09T11:28:33;6.88;;;6.15;;
9860;SDS011;4969;52.304;4.968;2023-07-09T11:31:04;6.47;;;5.68;;
9860;SDS011;4969;52.304;4.968;2023-07-09T11:33:33;5.97;;;5.43;;
9860;SDS011;4969;52.304;4.968;2023-07-09T11:36:06;6.57;;;5.80;;
9860;SDS011;4969;52.304;4.968;2023-07-09T11:38:39;8.10;;;5.15;;
9860;SDS011;4969;52.304;4.968;2023-07-09T11:41:22;7.57;;;5.70;;
9860;SDS011;4969;52.304;4.968;2023-07-09T11:43:52;7.10;;;5.65;;
9860;SDS011;4969;52.304;4.968;2023-07-09T11:46:26;6.28;;;5.70;;
9860;SDS011;4969;52.304;4.968;2023-07-09T11:48:54;6.65;;;5.25;;
9860;SDS011;4969;52.304;4.968;2023-07-09T11:51:24;6.75;;;6.00;;
9860;SDS011;4969;52.304;4.968;2023-07-09T11:54:01;6.38;;;5.78;;
9860;SDS011;4969;52.304;4.968;2023-07-09T11:56:28;5.65;;;5.00;;
9860;SDS011;4969;52.304;4.968;2023-07-09T11:58:56;5.15;;;4.65;;
9860;SDS011;4969;52.304;4.968;2023-07-09T12:01:24;5.82;;;4.85;;
9860;SDS011;4969;52.304;4.968;2023-07-09T12:03:55;5.85;;;5.00;;
9860;SDS011;4969;52.304;4.968;2023-07-09T12:06:24;5.47;;;4.78;;
9860;SDS011;4969;52.304;4.968;2023-07-09T12:08:54;4.85;;;4.47;;
9860;SDS011;4969;52.304;4.968;2023-07-09T12:11:24;5.95;;;5.00;;
9860;SDS011;4969;52.304;4.968;2023-07-09T12:13:52;7.03;;;4.97;;
9860;SDS011;4969;52.304;4.968;2023-07-09T12:16:20;7.72;;;4.72;;
9860;SDS011;4969;52.304;4.968;2023-07-09T12:18:49;8.05;;;5.15;;
9860;SDS011;4969;52.304;4.968;2023-07-09T12:21:15;5.10;;;4.60;;
9860;SDS011;4969;52.304;4.968;2023-07-09T12:23:42;6.15;;;4.68;;
9860;SDS011;4969;52.304;4.968;2023-07-09T12:26:11;5.90;;;4.82;;
9860;SDS011;4969;52.304;4.968;2023-07-09T12:28:48;7.57;;;5.40;;
9860;SDS011;4969;52.304;4.968;2023-07-09T12:31:16;6.03;;;5.43;;
9860;SDS011;4969;52.304;4.968;2023-07-09T12:33:46;8.52;;;5.07;;
9860;SDS011;4969;52.304;4.968;2023-07-09T12:36:14;5.82;;;5.32;;
9860;SDS011;4969;52.304;4.968;2023-07-09T12:38:44;7.60;;;5.68;;
9860;SDS011;4969;52.304;4.968;2023-07-09T12:41:16;6.57;;;5.97;;
9860;SDS011;4969;52.304;4.968;2023-07-09T12:43:47;7.07;;;5.40;;
9860;SDS011;4969;52.304;4.968;2023-07-09T12:46:15;5.72;;;4.80;;
9860;SDS011;4969;52.304;4.968;2023-07-09T12:48:42;5.53;;;5.03;;
9860;SDS011;4969;52.304;4.968;2023-07-09T12:51:13;5.30;;;4.70;;
9860;SDS011;4969;52.304;4.968;2023-07-09T12:53:42;5.57;;;4.82;;
9860;SDS011;4969;52.304;4.968;2023-07-09T12:56:10;6.32;;;3.72;;
9860;SDS011;4969;52.304;4.968;2023-07-09T12:58:38;5.43;;;3.20;;
9860;SDS011;4969;52.304;4.968;2023-07-09T13:01:12;4.93;;;3.20;;
9860;SDS011;4969;52.304;4.968;2023-07-09T13:03:41;4.80;;;2.90;;
9860;SDS011;4969;52.304;4.968;2023-07-09T13:06:23;5.63;;;2.92;;
9860;SDS011;4969;52.304;4.968;2023-07-09T13:08:55;5.30;;;3.50;;
9860;SDS011;4969;52.304;4.968;2023-07-09T13:11:23;6.55;;;3.70;;
9860;SDS011;4969;52.304;4.968;2023-07-09T13:13:53;6.75;;;3.97;;
9860;SDS011;4969;52.304;4.968;2023-07-09T13:16:22;4.93;;;3.80;;
9860;SDS011;4969;52.304;4.968;2023-07-09T13:18:49;7.00;;;4.00;;
9860;SDS011;4969;52.304;4.968;2023-07-09T13:21:17;7.47;;;4.13;;
9860;SDS011;4969;52.304;4.968;2023-07-09T13:23:45;5.10;;;4.13;;
9860;SDS011;4969;52.304;4.968;2023-07-09T13:26:12;7.32;;;4.38;;
9860;SDS011;4969;52.304;4.968;2023-07-09T13:28:39;9.60;;;4.68;;
9860;SDS011;4969;52.304;4.968;2023-07-09T13:31:14;7.30;;;4.30;;
9860;SDS011;4969;52.304;4.968;2023-07-09T13:33:43;6.50;;;3.97;;
9860;SDS011;4969;52.304;4.968;2023-07-09T13:36:12;9.07;;;3.95;;
9860;SDS011;4969;52.304;4.968;2023-07-09T13:38:39;6.43;;;3.60;;
9860;SDS011;4969;52.304;4.968;2023-07-09T13:41:10;6.60;;;4.20;;
9860;SDS011;4969;52.304;4.968;2023-07-09T13:43:41;4.82;;;4.10;;
9860;SDS011;4969;52.304;4.968;2023-07-09T13:46:09;9.50;;;4.50;;
9860;SDS011;4969;52.304;4.968;2023-07-09T13:48:36;5.85;;;3.70;;
9860;SDS011;4969;52.304;4.968;2023-07-09T13:51:10;7.07;;;4.18;;
9860;SDS011;4969;52.304;4.968;2023-07-09T13:53:40;8.40;;;4.50;;
9860;SDS011;4969;52.304;4.968;2023-07-09T13:56:07;8.75;;;4.55;;
9860;SDS011;4969;52.304;4.968;2023-07-09T13:58:34;8.77;;;5.05;;
9860;SDS011;4969;52.304;4.968;2023-07-09T14:01:05;9.05;;;5.38;;
9860;SDS011;4969;52.304;4.968;2023-07-09T14:03:37;10.43;;;6.65;;
9860;SDS011;4969;52.304;4.968;2023-07-09T14:06:03;9.45;;;6.90;;
9860;SDS011;4969;52.304;4.968;2023-07-09T14:08:32;10.52;;;7.78;;
9860;SDS011;4969;52.304;4.968;2023-07-09T14:10:58;12.55;;;7.25;;
9860;SDS011;4969;52.304;4.968;2023-07-09T14:13:25;11.60;;;8.20;;
9860;SDS011;4969;52.304;4.968;2023-07-09T14:15:51;20.65;;;7.85;;
9860;SDS011;4969;52.304;4.968;2023-07-09T14:18:19;12.80;;;7.60;;
9860;SDS011;4969;52.304;4.968;2023-07-09T14:20:47;9.75;;;6.95;;
9860;SDS011;4969;52.304;4.968;2023-07-09T14:23:15;11.50;;;7.13;;
9860;SDS011;4969;52.304;4.968;2023-07-09T14:25:44;10.10;;;7.68;;
9860;SDS011;4969;52.304;4.968;2023-07-09T14:28:12;12.25;;;7.93;;
9860;SDS011;4969;52.304;4.968;2023-07-09T14:30:40;10.38;;;7.78;;
9860;SDS011;4969;52.304;4.968;2023-07-09T14:33:09;9.77;;;7.32;;
9860;SDS011;4969;52.304;4.968;2023-07-09T14:35:39;11.73;;;7.13;;
9860;SDS011;4969;52.304;4.968;2023-07-09T14:38:06;8.18;;;6.38;;
9860;SDS011;4969;52.304;4.968;2023-07-09T14:40:42;9.13;;;7.22;;
9860;SDS011;4969;52.304;4.968;2023-07-09T14:43:11;8.32;;;6.90;;
9860;SDS011;4969;52.304;4.968;2023-07-09T14:45:38;12.40;;;6.50;;
9860;SDS011;4969;52.304;4.968;2023-07-09T14:48:08;9.70;;;6.05;;
9860;SDS011;4969;52.304;4.968;2023-07-09T14:50:36;10.13;;;6.13;;
9860;SDS011;4969;52.304;4.968;2023-07-09T14:53:03;10.02;;;5.57;;
9860;SDS011;4969;52.304;4.968;2023-07-09T14:55:31;8.20;;;6.07;;
9860;SDS011;4969;52.304;4.968;2023-07-09T14:57:59;7.65;;;5.43;;
9860;SDS011;4969;52.304;4.968;2023-07-09T15:00:26;8.75;;;5.75;;
9860;SDS011;4969;52.304;4.968;2023-07-09T15:02:53;8.32;;;5.15;;
9860;SDS011;4969;52.304;4.968;2023-07-09T15:05:21;19.60;;;6.65;;
9860;SDS011;4969;52.304;4.968;2023-07-09T15:07:49;15.05;;;7.22;;